KGCC/GCC METAR and TAF weather

Enter ICAO airport designator
Station Type Date Time Source
KGCC METAR 2021/01/16 02:53 UTC NOAA

KGCC 160253Z AUTO 26009KT 10SM OVC065 03/M09 A2998 RMK AO2 SLP189 T00281089 56018 $


Station Type Date Time Source
KGCC Decoded METAR 2021/01/16 02:53 UTC NOAA

GILLETTE-CAMPBELL CTY AIRPORT , WY, United States (KGCC) 44-20N 105-33W 1320M
Jan 15, 2021 - 09:53 PM EST / 2021.01.16 0253 UTC
Wind: from the W (260 degrees) at 10 MPH (9 KT):0
Visibility: 10 mile(s):0
Sky conditions: overcast
Temperature: 37.0 F (2.8 C)
Dew Point: 16.0 F (-8.9 C)
Relative Humidity: 41%
Pressure (altimeter): 29.98 in. Hg (1015 hPa)
Pressure tendency: 0.05 inches (1.8 hPa) lower than three hours ago
ob: KGCC 160253Z AUTO 26009KT 10SM OVC065 03/M09 A2998 RMK AO2 SLP189 T00281089 56018
cycle: 3

Station Type Date Time Source
KGCC TAF 2021/01/15 18:34 UTC NOAA

TAF KGCC 151732Z 1518/1618 29010KT P6SM FEW250
FM152300 24008KT P6SM BKN070
FM160500 32015KT P6SM OVC015
TEMPO 1606/1610 3SM -SN OVC007
FM161200 30011KT P6SM OVC007

Example: see airport list